Time;durP1;ratioP1;P1;durP2;ratioP2;P2;SDS_P1;SDS_P2;PMS_P1;PMS_P2;Temp;Humidity;BMP_temperature;BMP_pressure;BME280_temperature;BME280_humidity;BME280_pressure;Samples;Min_cycle;Max_cycle;Signal;HPM_P1;HPM_P2
2023/04/30 00:01:51;;;;;;;18.47;11.70;;;13.90;75.30;;;;;;5068441;28;20480;-66
2023/04/30 00:04:20;;;;;;;18.27;12.03;;;13.90;75.30;;;;;;5066222;28;21157;-65
2023/04/30 00:07:00;;;;;;;21.93;12.53;;;13.90;75.30;;;;;;5070481;28;20898;-65
2023/04/30 00:09:38;;;;;;;17.07;11.83;;;13.90;75.30;;;;;;5069546;28;20513;-66
2023/04/30 00:15:00;;;;;;;14.90;11.57;;;13.90;75.40;;;;;;5068483;28;20506;-65
2023/04/30 00:17:41;;;;;;;18.13;11.30;;;13.80;75.50;;;;;;5070736;28;20449;-66
2023/04/30 00:20:22;;;;;;;15.07;11.13;;;13.80;75.60;;;;;;5068631;28;20458;-65
2023/04/30 00:22:55;;;;;;;17.20;12.00;;;13.80;75.70;;;;;;5068800;28;20494;-65
2023/04/30 00:25:29;;;;;;;15.47;11.43;;;13.80;75.70;;;;;;5067794;28;20973;-66
2023/04/30 00:27:59;;;;;;;16.00;11.53;;;13.80;75.80;;;;;;5063100;28;20462;-66
2023/04/30 00:30:31;;;;;;;14.70;11.90;;;13.80;75.80;;;;;;5064406;28;20480;-66
2023/04/30 00:33:17;;;;;;;16.60;12.20;;;13.80;75.80;;;;;;5067488;28;20469;-65
2023/04/30 00:35:57;;;;;;;15.67;11.27;;;13.80;75.90;;;;;;5063712;28;20452;-66
2023/04/30 00:38:30;;;;;;;15.50;11.37;;;13.80;75.90;;;;;;5063405;28;20978;-65
2023/04/30 00:41:03;;;;;;;14.47;10.77;;;13.70;76.00;;;;;;5067811;28;20459;-66
2023/04/30 00:43:41;;;;;;;17.00;11.83;;;13.70;76.00;;;;;;5067319;28;21025;-65
2023/04/30 00:46:13;;;;;;;18.80;11.93;;;13.70;76.00;;;;;;5071478;28;20556;-65
2023/04/30 00:48:46;;;;;;;15.00;11.87;;;13.70;76.00;;;;;;5068680;28;21033;-66
2023/04/30 00:51:20;;;;;;;13.80;10.50;;;13.70;76.10;;;;;;5065116;28;20538;-65
2023/04/30 00:53:57;;;;;;;15.73;11.27;;;13.70;76.10;;;;;;5069298;28;20459;-65
2023/04/30 00:56:35;;;;;;;17.13;11.90;;;13.70;76.20;;;;;;5068768;28;20465;-65
2023/04/30 00:59:15;;;;;;;12.90;10.03;;;13.70;76.20;;;;;;5065570;28;20954;-65
2023/04/30 01:01:48;;;;;;;14.90;11.60;;;13.70;76.20;;;;;;5065382;28;20818;-65
2023/04/30 01:04:22;;;;;;;18.30;12.07;;;13.70;76.20;;;;;;5067830;28;21272;-66
2023/04/30 01:07:07;;;;;;;15.80;11.30;;;13.70;76.30;;;;;;5067035;28;20461;-65
2023/04/30 01:09:47;;;;;;;17.03;11.97;;;13.70;76.30;;;;;;5068176;28;20508;-66
2023/04/30 01:12:26;;;;;;;14.23;11.37;;;13.70;76.30;;;;;;5068559;28;20578;-65
2023/04/30 01:15:11;;;;;;;18.23;11.87;;;13.70;76.40;;;;;;5068424;28;20461;-66
2023/04/30 01:18:15;;;;;;;18.30;12.60;;;13.70;76.40;;;;;;5067911;28;20476;-66
2023/04/30 01:20:57;;;;;;;16.33;12.13;;;13.70;76.40;;;;;;5068638;28;20484;-65
2023/04/30 01:23:44;;;;;;;18.40;12.20;;;13.60;76.40;;;;;;5064300;28;20457;-65
2023/04/30 01:26:21;;;;;;;16.90;12.07;;;13.60;76.50;;;;;;5067510;28;20465;-66
2023/04/30 01:29:02;;;;;;;19.23;12.77;;;13.60;76.50;;;;;;5066890;28;20540;-65
2023/04/30 01:31:37;;;;;;;16.63;12.70;;;13.60;76.60;;;;;;5053910;28;21234;-65
2023/04/30 01:34:19;;;;;;;17.70;12.60;;;13.60;76.60;;;;;;5061015;28;20468;-65
2023/04/30 01:37:06;;;;;;;16.93;12.00;;;13.60;76.60;;;;;;5067997;28;21116;-66
2023/04/30 01:40:05;;;;;;;15.33;11.40;;;13.60;76.70;;;;;;5066069;28;20464;-66
2023/04/30 01:42:50;;;;;;;17.57;11.53;;;13.60;76.70;;;;;;5064524;28;20544;-66
2023/04/30 01:45:46;;;;;;;17.17;11.87;;;13.50;76.70;;;;;;5062759;28;20467;-65
2023/04/30 01:48:22;;;;;;;15.37;12.03;;;13.50;76.80;;;;;;5060392;28;20463;-65
2023/04/30 01:51:07;;;;;;;16.83;13.00;;;13.50;76.80;;;;;;5066469;28;20453;-65
2023/04/30 01:53:41;;;;;;;19.17;13.90;;;13.50;76.80;;;;;;5081526;28;20484;-65
2023/04/30 01:56:21;;;;;;;18.30;13.20;;;13.50;76.90;;;;;;5065335;28;20476;-65
2023/04/30 01:58:55;;;;;;;18.47;14.50;;;13.50;76.80;;;;;;5063803;28;20472;-66
2023/04/30 02:01:37;;;;;;;18.03;14.10;;;13.50;76.90;;;;;;5076299;28;20477;-66
2023/04/30 02:04:11;;;;;;;19.10;12.37;;;13.50;76.80;;;;;;5067471;28;21002;-65
2023/04/30 02:06:45;;;;;;;18.50;12.70;;;13.50;76.80;;;;;;5064816;28;20535;-65
2023/04/30 02:09:16;;;;;;;19.10;13.73;;;13.50;76.80;;;;;;5064041;28;20462;-65
2023/04/30 02:11:56;;;;;;;16.67;13.30;;;13.60;76.70;;;;;;5066204;28;20496;-66
2023/04/30 02:14:27;;;;;;;16.37;12.20;;;13.50;76.70;;;;;;5063198;28;20453;-66
2023/04/30 02:17:10;;;;;;;17.93;12.60;;;13.50;76.70;;;;;;5066212;28;20792;-65
2023/04/30 02:19:39;;;;;;;19.23;13.43;;;13.60;76.70;;;;;;5062837;28;20470;-65
2023/04/30 02:22:18;;;;;;;16.93;12.30;;;13.60;76.60;;;;;;5066242;28;20459;-66
2023/04/30 02:24:48;;;;;;;22.90;13.10;;;13.50;76.70;;;;;;5069457;28;20457;-65
2023/04/30 02:27:20;;;;;;;17.40;12.87;;;13.50;76.60;;;;;;5061198;28;20855;-65
2023/04/30 02:29:53;;;;;;;21.63;13.40;;;13.50;76.60;;;;;;5060995;28;20470;-66
2023/04/30 02:32:28;;;;;;;16.40;12.13;;;13.40;76.60;;;;;;5063101;28;20484;-65
2023/04/30 02:35:06;;;;;;;16.03;12.60;;;13.30;76.60;;;;;;5065341;28;20463;-65
2023/04/30 02:37:39;;;;;;;16.80;12.33;;;13.30;76.70;;;;;;5068178;28;20461;-65
2023/04/30 02:40:11;;;;;;;15.63;12.43;;;13.30;76.70;;;;;;5067819;28;20533;-66
2023/04/30 02:42:39;;;;;;;15.87;12.23;;;13.30;76.70;;;;;;5070994;28;20452;-65
2023/04/30 02:45:18;;;;;;;19.60;12.83;;;13.30;76.70;;;;;;5066147;28;20464;-65
2023/04/30 02:48:01;;;;;;;17.43;13.63;;;13.30;76.70;;;;;;5069138;28;20489;-65
2023/04/30 02:50:32;;;;;;;16.47;12.97;;;13.30;76.60;;;;;;5068610;28;20679;-66
2023/04/30 02:53:09;;;;;;;15.80;12.77;;;13.30;76.60;;;;;;5067236;28;20584;-66
2023/04/30 02:55:42;;;;;;;15.37;12.43;;;13.30;76.60;;;;;;5066770;28;20465;-65
2023/04/30 02:58:12;;;;;;;17.30;13.10;;;13.30;76.40;;;;;;5078674;28;20489;-65
2023/04/30 03:00:44;;;;;;;16.20;12.20;;;13.30;76.50;;;;;;5064231;28;20483;-66
2023/04/30 03:03:17;;;;;;;19.93;12.70;;;13.20;76.40;;;;;;5065645;28;20971;-65
2023/04/30 03:05:48;;;;;;;15.70;11.93;;;13.20;76.50;;;;;;5065740;28;20950;-65
2023/04/30 03:08:27;;;;;;;17.40;12.43;;;13.10;76.50;;;;;;5069167;28;20778;-65
2023/04/30 03:11:00;;;;;;;16.80;12.87;;;13.10;76.60;;;;;;5069596;28;20476;-66
2023/04/30 03:13:40;;;;;;;21.33;13.37;;;13.10;76.60;;;;;;5068841;28;20507;-66
2023/04/30 03:16:15;;;;;;;21.60;14.00;;;13.10;76.60;;;;;;5069007;28;20519;-66
2023/04/30 03:19:03;;;;;;;18.33;13.07;;;13.10;76.50;;;;;;5070865;28;20513;-66
2023/04/30 03:21:38;;;;;;;18.73;13.80;;;13.10;76.50;;;;;;5063363;28;20922;-65
2023/04/30 03:24:13;;;;;;;19.10;13.17;;;13.00;76.50;;;;;;5069895;28;20458;-66
2023/04/30 03:26:43;;;;;;;22.30;13.53;;;13.00;76.50;;;;;;5068967;28;20475;-66
2023/04/30 03:29:19;;;;;;;21.07;13.30;;;13.00;76.60;;;;;;5068374;28;20472;-65
2023/04/30 03:31:48;;;;;;;18.73;14.03;;;13.00;76.50;;;;;;5073257;28;20987;-65
2023/04/30 03:34:34;;;;;;;19.97;14.97;;;13.00;76.60;;;;;;5070722;28;20572;-65
2023/04/30 03:37:07;;;;;;;19.73;14.13;;;13.00;76.50;;;;;;5064568;28;20464;-66
2023/04/30 03:39:51;;;;;;;20.43;14.33;;;12.90;76.60;;;;;;5069753;28;20469;-66
2023/04/30 03:42:25;;;;;;;19.97;14.33;;;12.90;76.60;;;;;;5069007;28;20525;-66
2023/04/30 03:45:00;;;;;;;21.23;14.57;;;12.90;76.70;;;;;;5071423;28;20467;-65
2023/04/30 03:47:39;;;;;;;19.60;13.90;;;12.90;76.60;;;;;;5067717;28;20549;-66
2023/04/30 03:50:20;;;;;;;17.10;14.33;;;12.80;76.60;;;;;;5068336;28;20463;-65
2023/04/30 03:52:59;;;;;;;20.23;15.20;;;12.80;76.60;;;;;;5068859;28;20485;-65
2023/04/30 03:55:28;;;;;;;18.23;13.90;;;12.80;76.70;;;;;;5068922;28;20461;-66
2023/04/30 03:58:00;;;;;;;19.37;14.30;;;12.80;76.60;;;;;;5065983;28;20481;-66
2023/04/30 04:00:31;;;;;;;19.80;14.63;;;12.80;76.80;;;;;;5065222;28;20538;-66
2023/04/30 04:03:04;;;;;;;20.93;15.37;;;12.80;76.70;;;;;;5070454;28;20510;-66
2023/04/30 04:05:40;;;;;;;17.70;14.27;;;12.80;76.70;;;;;;5068742;28;20468;-65
2023/04/30 04:08:23;;;;;;;17.60;14.47;;;12.80;76.70;;;;;;5067972;28;20456;-65
2023/04/30 04:11:08;;;;;;;21.50;16.47;;;12.70;76.70;;;;;;5064134;28;20815;-66
2023/04/30 04:13:43;;;;;;;22.10;16.00;;;12.70;76.80;;;;;;5068405;28;20484;-65
2023/04/30 04:16:14;;;;;;;21.50;16.07;;;12.70;76.80;;;;;;5069946;28;20487;-65
2023/04/30 04:18:53;;;;;;;19.90;15.63;;;12.70;76.90;;;;;;5066089;28;20580;-66
2023/04/30 04:21:31;;;;;;;21.93;16.70;;;12.70;76.90;;;;;;5070332;28;21222;-65
2023/04/30 04:24:15;;;;;;;22.30;16.10;;;12.80;76.80;;;;;;5069693;28;20456;-65
2023/04/30 04:26:48;;;;;;;19.33;15.20;;;12.80;76.80;;;;;;5066935;28;21013;-67
2023/04/30 04:29:24;;;;;;;23.13;15.43;;;12.80;76.80;;;;;;5070509;28;20473;-66
2023/04/30 04:32:05;;;;;;;25.47;17.27;;;12.80;76.80;;;;;;5068502;28;20861;-66
2023/04/30 04:34:48;;;;;;;22.93;16.37;;;12.80;76.80;;;;;;5066341;28;21037;-66
2023/04/30 04:37:22;;;;;;;21.70;15.37;;;12.90;76.70;;;;;;5066226;28;20510;-65
2023/04/30 04:39:51;;;;;;;21.67;16.17;;;12.90;76.80;;;;;;5080596;28;20465;-65
2023/04/30 04:42:27;;;;;;;21.30;15.53;;;12.90;76.80;;;;;;5067879;28;20453;-65
2023/04/30 04:45:00;;;;;;;20.00;15.93;;;12.90;76.70;;;;;;5071188;28;20444;-65
2023/04/30 04:47:36;;;;;;;25.53;16.73;;;13.00;76.70;;;;;;5065694;28;20794;-66
2023/04/30 04:50:09;;;;;;;22.17;16.70;;;13.00;76.60;;;;;;5066852;28;20479;-65
2023/04/30 04:52:59;;;;;;;21.93;16.97;;;13.00;76.60;;;;;;5067671;28;20487;-66
2023/04/30 04:58:18;;;;;;;22.83;18.07;;;13.00;76.50;;;;;;5068145;28;20474;-66
2023/04/30 05:00:51;;;;;;;21.03;15.73;;;13.00;76.50;;;;;;5065689;28;20952;-66
2023/04/30 05:03:35;;;;;;;23.30;15.47;;;13.00;76.50;;;;;;5067299;28;20463;-66
2023/04/30 05:06:16;;;;;;;25.27;17.00;;;13.00;76.50;;;;;;5065144;28;20901;-67
2023/04/30 05:09:07;;;;;;;21.00;15.83;;;13.00;76.50;;;;;;5066655;28;20468;-66
2023/04/30 05:11:50;;;;;;;18.70;14.60;;;13.00;76.50;;;;;;5065823;28;20489;-65
2023/04/30 05:14:25;;;;;;;19.40;15.03;;;13.00;76.50;;;;;;5068214;28;20536;-66
2023/04/30 05:17:01;;;;;;;24.03;16.27;;;13.00;76.40;;;;;;5068600;28;20530;-66
2023/04/30 05:19:33;;;;;;;20.23;15.30;;;13.10;76.40;;;;;;5062951;28;20940;-66
2023/04/30 05:22:11;;;;;;;22.50;15.87;;;13.00;76.40;;;;;;5061902;28;20898;-66
2023/04/30 05:24:52;;;;;;;23.97;16.37;;;13.00;76.50;;;;;;5063517;28;20538;-66
2023/04/30 05:27:30;;;;;;;23.33;16.40;;;13.00;76.50;;;;;;5068562;28;20518;-65
2023/04/30 05:30:01;;;;;;;16.37;13.83;;;13.10;76.60;;;;;;5067743;28;20571;-66
2023/04/30 05:32:50;;;;;;;19.90;16.00;;;13.10;76.50;;;;;;5064053;28;21027;-65
2023/04/30 05:35:22;;;;;;;25.20;16.00;;;13.10;76.50;;;;;;5066073;28;20479;-66
2023/04/30 05:37:57;;;;;;;19.73;15.53;;;13.20;76.60;;;;;;5062869;28;20554;-66
2023/04/30 05:40:33;;;;;;;23.77;16.20;;;13.20;76.50;;;;;;5057230;28;20483;-66
2023/04/30 05:43:07;;;;;;;19.67;14.93;;;13.30;76.40;;;;;;5065495;28;21179;-65
2023/04/30 05:45:43;;;;;;;17.67;13.93;;;13.30;76.50;;;;;;5063434;28;20458;-65
2023/04/30 05:48:14;;;;;;;19.73;15.37;;;13.30;76.50;;;;;;5064796;28;20805;-65
2023/04/30 05:50:52;;;;;;;19.73;15.20;;;13.30;76.20;;;;;;5064044;28;20482;-65
2023/04/30 05:53:26;;;;;;;23.53;17.37;;;13.30;76.30;;;;;;5062451;28;20461;-65
2023/04/30 05:56:14;;;;;;;25.97;16.30;;;13.30;76.20;;;;;;5061935;28;20480;-65
2023/04/30 05:58:44;;;;;;;19.30;14.80;;;13.30;76.20;;;;;;5065623;28;20468;-65
2023/04/30 06:01:24;;;;;;;21.80;16.27;;;13.30;76.20;;;;;;5063397;28;20507;-65
2023/04/30 06:03:55;;;;;;;21.00;16.70;;;13.30;76.20;;;;;;5065356;28;20461;-65
2023/04/30 06:06:35;;;;;;;19.27;15.20;;;13.40;76.00;;;;;;5066956;28;21019;-65
2023/04/30 06:09:14;;;;;;;22.00;15.60;;;13.40;76.00;;;;;;5066884;28;20467;-65
2023/04/30 06:11:49;;;;;;;20.90;15.60;;;13.30;76.00;;;;;;5069753;28;20801;-65
2023/04/30 06:14:23;;;;;;;24.30;15.70;;;13.40;75.90;;;;;;5069842;28;20477;-66
2023/04/30 06:16:56;;;;;;;19.87;16.00;;;13.30;75.80;;;;;;5070344;28;20477;-65
2023/04/30 06:19:29;;;;;;;23.10;17.13;;;13.30;75.80;;;;;;5067489;28;20521;-65
2023/04/30 06:22:00;;;;;;;18.40;15.50;;;13.30;75.80;;;;;;5070241;28;20457;-65
2023/04/30 06:24:33;;;;;;;20.73;14.27;;;13.30;75.80;;;;;;5066981;28;20458;-65
2023/04/30 06:27:12;;;;;;;26.97;16.63;;;13.30;75.70;;;;;;5069830;28;20502;-65
2023/04/30 06:29:46;;;;;;;21.73;13.40;;;13.40;75.80;;;;;;5071258;28;20503;-65
2023/04/30 06:32:19;;;;;;;23.57;16.23;;;13.50;75.80;;;;;;5069724;28;20993;-65
2023/04/30 06:34:50;;;;;;;17.93;13.20;;;13.60;75.70;;;;;;5071734;28;20481;-65
2023/04/30 06:37:34;;;;;;;20.10;13.03;;;13.60;75.70;;;;;;5067186;28;20564;-65
2023/04/30 06:40:06;;;;;;;19.10;13.90;;;13.60;75.60;;;;;;5072324;28;20501;-65
2023/04/30 06:42:57;;;;;;;19.83;14.30;;;13.70;75.40;;;;;;5069590;28;20469;-65
2023/04/30 06:45:27;;;;;;;17.63;13.43;;;13.70;75.10;;;;;;5070937;28;20930;-65
2023/04/30 06:48:12;;;;;;;19.47;12.90;;;13.70;75.10;;;;;;5067952;28;20538;-65
2023/04/30 06:50:48;;;;;;;19.17;12.70;;;13.70;75.10;;;;;;5068079;28;20464;-65
2023/04/30 06:53:21;;;;;;;18.63;13.67;;;13.80;75.00;;;;;;5066429;28;20476;-64
2023/04/30 06:55:54;;;;;;;19.27;13.40;;;13.90;74.80;;;;;;5066928;28;20487;-65
2023/04/30 06:58:42;;;;;;;17.00;13.27;;;13.90;74.80;;;;;;5068968;28;20492;-65
2023/04/30 07:01:13;;;;;;;20.20;12.57;;;14.00;74.40;;;;;;5064234;28;20550;-66
2023/04/30 07:03:53;;;;;;;18.67;11.90;;;14.10;74.20;;;;;;5071681;28;20524;-65
2023/04/30 07:06:38;;;;;;;15.33;11.30;;;14.10;73.90;;;;;;5068333;28;20453;-66
2023/04/30 07:09:14;;;;;;;17.73;12.63;;;14.00;73.70;;;;;;5066308;28;20533;-65
2023/04/30 07:11:56;;;;;;;18.70;13.80;;;14.00;73.60;;;;;;5067091;28;20557;-65
2023/04/30 07:14:37;;;;;;;16.90;12.10;;;14.00;73.60;;;;;;5068183;28;20465;-65
2023/04/30 07:17:07;;;;;;;15.77;11.20;;;14.10;73.60;;;;;;5066884;28;20991;-65
2023/04/30 07:19:39;;;;;;;16.70;10.97;;;14.10;73.60;;;;;;5068767;28;20556;-65
2023/04/30 07:22:11;;;;;;;15.50;11.40;;;14.20;73.50;;;;;;5061157;28;20559;-65
2023/04/30 07:24:42;;;;;;;15.77;9.67;;;14.20;73.50;;;;;;5067910;28;20518;-65
2023/04/30 07:27:14;;;;;;;13.60;10.07;;;14.30;73.30;;;;;;5069002;28;20458;-65
2023/04/30 07:30:00;;;;;;;14.97;10.33;;;14.30;72.70;;;;;;5066591;28;20796;-65
2023/04/30 07:32:31;;;;;;;18.53;9.60;;;14.30;72.10;;;;;;5067701;28;20467;-65
2023/04/30 07:35:06;;;;;;;15.03;10.50;;;14.30;72.00;;;;;;5068362;28;20514;-64
2023/04/30 07:37:36;;;;;;;11.73;8.80;;;14.30;71.70;;;;;;5062504;28;20544;-65
2023/04/30 07:40:21;;;;;;;15.27;9.77;;;14.30;71.50;;;;;;5063925;28;20467;-65
2023/04/30 07:43:06;;;;;;;17.90;10.47;;;14.30;71.10;;;;;;5064880;28;20947;-65
2023/04/30 07:45:50;;;;;;;12.33;9.93;;;14.30;71.10;;;;;;5066452;28;20469;-66
2023/04/30 07:48:25;;;;;;;16.00;8.90;;;14.40;70.90;;;;;;5067296;28;20468;-66
2023/04/30 07:51:04;;;;;;;12.70;8.40;;;14.50;70.90;;;;;;5062234;28;20463;-65
2023/04/30 07:53:36;;;;;;;14.17;9.50;;;14.50;70.70;;;;;;5064802;28;20820;-66
2023/04/30 07:56:14;;;;;;;12.63;9.20;;;14.60;70.60;;;;;;5062960;28;20484;-65
2023/04/30 07:58:46;;;;;;;16.63;9.13;;;14.60;70.40;;;;;;5069862;28;20609;-66
2023/04/30 08:01:20;;;;;;;11.20;8.13;;;14.60;70.50;;;;;;5059679;28;20866;-65
2023/04/30 08:03:52;;;;;;;12.43;8.23;;;14.70;69.90;;;;;;5067891;28;20462;-66
2023/04/30 08:06:30;;;;;;;12.60;7.80;;;14.70;69.40;;;;;;5068842;28;20465;-66
2023/04/30 08:09:03;;;;;;;12.70;9.03;;;14.70;69.40;;;;;;5059394;28;21172;-65
2023/04/30 08:11:37;;;;;;;13.73;7.33;;;14.70;68.90;;;;;;5068275;28;20461;-65
2023/04/30 08:14:18;;;;;;;12.10;7.47;;;14.80;68.70;;;;;;5063736;28;20542;-65
2023/04/30 08:16:59;;;;;;;12.80;8.13;;;14.70;68.70;;;;;;5064979;28;20982;-65
2023/04/30 08:19:34;;;;;;;15.43;9.57;;;14.80;68.70;;;;;;5065120;28;20504;-66
2023/04/30 08:22:03;;;;;;;12.77;8.47;;;14.80;68.60;;;;;;5064306;28;20933;-65
2023/04/30 08:24:34;;;;;;;11.57;6.93;;;14.90;68.50;;;;;;5064520;28;20480;-65
2023/04/30 08:27:10;;;;;;;9.30;6.80;;;15.00;68.40;;;;;;5067074;28;20860;-65
2023/04/30 08:29:41;;;;;;;9.80;6.30;;;15.00;68.20;;;;;;5068306;28;20463;-66
2023/04/30 08:32:19;;;;;;;9.17;6.60;;;15.10;68.20;;;;;;5068387;28;20816;-65
2023/04/30 08:34:59;;;;;;;9.70;6.37;;;15.10;67.80;;;;;;5068019;28;20460;-65
2023/04/30 08:37:27;;;;;;;11.27;7.77;;;15.20;67.70;;;;;;5065759;28;20462;-66
2023/04/30 08:40:08;;;;;;;9.70;7.00;;;15.20;67.60;;;;;;5062596;28;20782;-65
2023/04/30 08:42:44;;;;;;;10.00;6.90;;;15.30;67.60;;;;;;5066826;28;20849;-65
2023/04/30 08:45:17;;;;;;;11.00;6.00;;;15.30;67.50;;;;;;5068454;28;20474;-65
2023/04/30 08:48:01;;;;;;;10.17;6.70;;;15.30;67.20;;;;;;5069770;28;20455;-66
2023/04/30 08:53:19;;;;;;;11.43;6.67;;;15.40;67.00;;;;;;5067042;28;20940;-65
2023/04/30 08:55:50;;;;;;;11.00;6.77;;;15.50;66.90;;;;;;5068538;28;20473;-65
2023/04/30 08:58:28;;;;;;;10.40;6.57;;;15.50;66.60;;;;;;5069725;28;20463;-65
2023/04/30 09:01:08;;;;;;;10.33;7.00;;;15.50;66.60;;;;;;5070109;28;20931;-65
2023/04/30 09:03:47;;;;;;;11.53;6.23;;;15.60;66.60;;;;;;5069180;28;20475;-66
2023/04/30 09:06:19;;;;;;;12.67;6.40;;;15.70;66.50;;;;;;5065427;28;20453;-65
2023/04/30 09:08:58;;;;;;;12.50;6.00;;;15.70;66.40;;;;;;5066313;28;20447;-66
2023/04/30 09:11:32;;;;;;;8.37;5.83;;;15.80;66.30;;;;;;5068473;28;20536;-66
2023/04/30 09:14:11;;;;;;;11.23;6.37;;;15.90;66.20;;;;;;5070699;28;20452;-65
2023/04/30 09:16:53;;;;;;;8.67;5.60;;;15.90;65.90;;;;;;5070328;28;20544;-65
2023/04/30 09:19:35;;;;;;;8.53;5.13;;;15.80;65.00;;;;;;5068937;28;20896;-65
2023/04/30 09:22:31;;;;;;;9.53;5.50;;;15.70;64.60;;;;;;5065625;28;20464;-66
2023/04/30 09:24:59;;;;;;;8.60;4.30;;;15.80;65.00;;;;;;5063373;28;20558;-65
2023/04/30 09:27:30;;;;;;;8.10;4.10;;;15.80;64.60;;;;;;5067821;28;21128;-66
2023/04/30 09:32:55;;;;;;;7.90;4.03;;;16.00;64.20;;;;;;5067671;28;20464;-65
2023/04/30 09:35:38;;;;;;;7.57;4.40;;;16.00;63.70;;;;;;5065927;28;20453;-66
2023/04/30 09:38:27;;;;;;;5.97;3.30;;;16.00;63.20;;;;;;5068173;28;20449;-65
2023/04/30 09:40:59;;;;;;;7.50;4.00;;;16.10;63.30;;;;;;5067869;28;20787;-66
2023/04/30 09:43:30;;;;;;;8.10;4.00;;;16.10;63.10;;;;;;5068238;28;20518;-66
2023/04/30 09:46:03;;;;;;;6.00;3.17;;;16.20;62.80;;;;;;5068617;28;20471;-64
2023/04/30 09:48:36;;;;;;;6.50;3.80;;;16.20;63.00;;;;;;5068496;28;20557;-65
2023/04/30 09:51:10;;;;;;;6.90;3.17;;;16.20;62.90;;;;;;5065010;28;20469;-65
2023/04/30 09:53:45;;;;;;;6.23;3.17;;;16.30;62.70;;;;;;5069566;28;20534;-65
2023/04/30 09:56:32;;;;;;;6.40;3.50;;;16.40;62.40;;;;;;5068431;28;20484;-64
2023/04/30 09:59:09;;;;;;;6.37;3.13;;;16.50;62.10;;;;;;5065702;28;20460;-64
2023/04/30 10:01:38;;;;;;;6.27;3.87;;;16.50;61.70;;;;;;5068720;28;20535;-64
2023/04/30 10:04:10;;;;;;;8.73;3.70;;;16.60;61.40;;;;;;5066435;28;20794;-65
2023/04/30 10:06:45;;;;;;;6.27;3.27;;;16.60;61.40;;;;;;5069099;28;20548;-64
2023/04/30 10:09:15;;;;;;;6.33;3.20;;;16.60;61.10;;;;;;5067521;28;20456;-65
2023/04/30 10:11:58;;;;;;;6.50;3.20;;;16.70;60.60;;;;;;5069870;28;20497;-64
2023/04/30 10:14:34;;;;;;;6.40;3.33;;;16.80;60.00;;;;;;5069359;28;20487;-64
2023/04/30 10:17:12;;;;;;;6.43;3.90;;;16.80;59.40;;;;;;5069112;28;20491;-64
2023/04/30 10:19:53;;;;;;;7.07;3.50;;;16.70;59.10;;;;;;5068607;28;20449;-64
2023/04/30 10:22:30;;;;;;;6.60;3.57;;;16.70;59.10;;;;;;5068762;28;20519;-64
2023/04/30 10:25:05;;;;;;;7.50;3.33;;;16.70;59.10;;;;;;5066630;28;20464;-64
2023/04/30 10:27:44;;;;;;;5.73;3.07;;;16.80;59.10;;;;;;5069278;28;20926;-65
2023/04/30 10:30:18;;;;;;;6.47;3.17;;;16.80;58.80;;;;;;5069319;28;20497;-65
2023/04/30 10:32:56;;;;;;;5.67;2.90;;;16.90;58.50;;;;;;5068765;28;20465;-65
2023/04/30 10:35:34;;;;;;;6.23;2.83;;;16.90;58.00;;;;;;5068059;28;20692;-65
2023/04/30 10:38:25;;;;;;;5.50;2.77;;;16.90;58.10;;;;;;5067364;28;20477;-65
2023/04/30 10:41:00;;;;;;;5.40;3.00;;;17.00;57.70;;;;;;5068987;28;20997;-66
2023/04/30 10:43:34;;;;;;;6.20;3.30;;;17.00;57.80;;;;;;5067209;28;20461;-65
2023/04/30 10:46:04;;;;;;;5.60;3.23;;;17.10;57.90;;;;;;5068286;28;20457;-64
2023/04/30 10:48:38;;;;;;;6.77;3.20;;;17.10;57.70;;;;;;5068066;28;20473;-64
2023/04/30 10:51:09;;;;;;;5.07;2.77;;;17.20;57.60;;;;;;5069152;28;20495;-64
2023/04/30 10:53:49;;;;;;;4.77;2.67;;;17.20;57.60;;;;;;5067184;28;20454;-65
2023/04/30 10:56:35;;;;;;;6.80;2.40;;;17.20;57.40;;;;;;5065498;28;20462;-64
2023/04/30 10:59:08;;;;;;;5.43;2.67;;;17.20;57.00;;;;;;5071234;28;20465;-64
2023/04/30 11:01:58;;;;;;;6.57;3.33;;;17.30;57.00;;;;;;5069909;28;20491;-64
2023/04/30 11:04:28;;;;;;;6.07;3.17;;;17.20;56.70;;;;;;5069953;28;20485;-64
2023/04/30 11:07:12;;;;;;;5.27;2.10;;;17.20;57.00;;;;;;5070414;28;20814;-64
2023/04/30 11:09:49;;;;;;;6.70;2.30;;;17.30;57.00;;;;;;5072730;28;20448;-64
2023/04/30 11:12:30;;;;;;;6.43;2.27;;;17.40;56.90;;;;;;5068296;28;20462;-65
2023/04/30 11:15:06;;;;;;;5.03;2.67;;;17.40;57.10;;;;;;5070994;28;20539;-64
2023/04/30 11:17:45;;;;;;;5.37;2.60;;;17.40;56.90;;;;;;5069695;28;20509;-65
2023/04/30 11:20:29;;;;;;;4.10;1.97;;;17.50;56.60;;;;;;5069083;28;20466;-64
2023/04/30 11:23:13;;;;;;;10.77;6.10;;;17.50;56.30;;;;;;5070899;28;20926;-64
2023/04/30 11:26:02;;;;;;;5.47;2.70;;;17.40;56.20;;;;;;5068476;28;20515;-64
2023/04/30 11:28:44;;;;;;;5.60;2.80;;;17.40;56.50;;;;;;5068692;28;20449;-64
2023/04/30 11:31:19;;;;;;;7.03;2.50;;;17.50;56.50;;;;;;5062563;28;21072;-64
2023/04/30 11:33:52;;;;;;;5.10;2.17;;;17.60;56.60;;;;;;5071250;28;20929;-64
2023/04/30 11:36:30;;;;;;;5.93;2.37;;;17.60;56.70;;;;;;5067421;28;21145;-64
2023/04/30 11:39:05;;;;;;;4.80;2.10;;;17.70;56.70;;;;;;5071603;28;20475;-64
2023/04/30 11:41:45;;;;;;;5.27;2.87;;;17.80;56.50;;;;;;5068729;28;20469;-65
2023/04/30 11:44:33;;;;;;;6.63;2.83;;;17.90;56.00;;;;;;5069609;28;20469;-65
2023/04/30 11:47:08;;;;;;;5.00;2.37;;;17.80;55.80;;;;;;5072094;28;21114;-65
2023/04/30 11:49:42;;;;;;;5.53;2.83;;;17.80;55.60;;;;;;5071911;28;20515;-65
2023/04/30 11:52:14;;;;;;;4.57;2.00;;;17.80;55.40;;;;;;5069689;28;20515;-65
2023/04/30 11:54:56;;;;;;;16.03;6.77;;;17.80;55.40;;;;;;5069642;28;20458;-65
2023/04/30 11:57:44;;;;;;;5.43;2.10;;;17.80;55.20;;;;;;5069197;28;20483;-64
2023/04/30 12:00:23;;;;;;;4.60;2.13;;;17.80;55.50;;;;;;5071684;28;20456;-65
2023/04/30 12:02:59;;;;;;;4.20;1.50;;;17.80;55.10;;;;;;5070511;28;20470;-65
2023/04/30 12:05:38;;;;;;;11.30;6.47;;;17.90;55.00;;;;;;5071326;28;20497;-66
2023/04/30 12:08:12;;;;;;;6.40;2.20;;;17.90;54.80;;;;;;5069220;28;20450;-65
2023/04/30 12:10:44;;;;;;;3.90;1.50;;;18.00;54.70;;;;;;5067708;28;20469;-66
2023/04/30 12:13:33;;;;;;;3.80;1.60;;;18.00;54.60;;;;;;5068062;28;20858;-65
2023/04/30 12:16:05;;;;;;;5.90;1.90;;;18.00;54.40;;;;;;5072243;28;20473;-65
2023/04/30 12:18:38;;;;;;;6.70;2.00;;;18.10;54.20;;;;;;5069136;28;20494;-66
2023/04/30 12:21:18;;;;;;;5.80;1.60;;;18.10;54.10;;;;;;5069542;28;20989;-66
2023/04/30 12:23:49;;;;;;;10.00;4.13;;;18.10;53.90;;;;;;5068806;28;20899;-65
2023/04/30 12:26:28;;;;;;;6.57;2.33;;;18.20;53.90;;;;;;5070856;28;20447;-65
2023/04/30 12:29:06;;;;;;;4.93;2.20;;;18.20;53.80;;;;;;5072215;28;20541;-66
2023/04/30 12:31:44;;;;;;;13.30;5.10;;;18.30;53.70;;;;;;5068090;28;21436;-66
2023/04/30 12:34:15;;;;;;;5.57;2.43;;;18.30;53.60;;;;;;5069653;28;20510;-65
2023/04/30 12:36:45;;;;;;;7.17;2.30;;;18.30;53.60;;;;;;5069286;28;20458;-65
2023/04/30 12:39:16;;;;;;;4.30;2.03;;;18.40;53.60;;;;;;5069420;28;20565;-65
2023/04/30 12:41:56;;;;;;;8.47;1.93;;;18.40;53.50;;;;;;5069420;28;20460;-65
2023/04/30 12:44:48;;;;;;;6.00;2.30;;;18.40;53.80;;;;;;5068761;28;20446;-65
2023/04/30 12:47:19;;;;;;;4.37;1.70;;;18.50;53.70;;;;;;5068884;28;20459;-65
2023/04/30 12:49:52;;;;;;;3.87;1.70;;;18.60;53.70;;;;;;5070274;28;20958;-66
2023/04/30 12:52:33;;;;;;;7.77;4.03;;;18.60;53.60;;;;;;5067348;28;20466;-66
2023/04/30 12:55:22;;;;;;;7.50;3.97;;;18.60;53.60;;;;;;5069377;28;20459;-65
2023/04/30 12:58:15;;;;;;;8.00;3.83;;;18.60;53.40;;;;;;5069625;28;20966;-65
2023/04/30 13:01:01;;;;;;;5.60;2.10;;;18.60;53.40;;;;;;5069157;28;20816;-65
2023/04/30 13:03:34;;;;;;;5.13;1.83;;;18.60;53.40;;;;;;5067178;28;20461;-66
2023/04/30 13:06:05;;;;;;;4.20;1.43;;;18.60;53.50;;;;;;5066897;28;20477;-65
2023/04/30 13:08:40;;;;;;;4.27;1.43;;;18.60;53.50;;;;;;5070292;28;21012;-65
2023/04/30 13:11:28;;;;;;;3.83;1.63;;;18.60;53.50;;;;;;5069675;28;20491;-65
2023/04/30 13:14:09;;;;;;;8.60;1.90;;;18.60;53.50;;;;;;5071305;28;20548;-65
2023/04/30 13:16:47;;;;;;;5.70;2.93;;;18.70;53.40;;;;;;5068941;28;20464;-66
2023/04/30 13:19:22;;;;;;;5.90;2.10;;;18.60;53.40;;;;;;5066929;28;20474;-65
2023/04/30 13:21:53;;;;;;;5.53;1.93;;;18.60;53.50;;;;;;5069878;28;20466;-65
2023/04/30 13:24:34;;;;;;;4.23;1.60;;;18.60;53.30;;;;;;5070617;28;20458;-65
2023/04/30 13:27:14;;;;;;;4.50;1.50;;;18.60;53.20;;;;;;5069614;28;20466;-66
2023/04/30 13:29:45;;;;;;;4.27;1.67;;;18.60;53.20;;;;;;5069560;28;20520;-65
2023/04/30 13:32:25;;;;;;;7.40;2.87;;;18.70;53.20;;;;;;5056115;28;20495;-65
2023/04/30 13:35:00;;;;;;;6.00;2.57;;;18.80;53.40;;;;;;5067402;28;20503;-65
2023/04/30 13:37:34;;;;;;;4.30;1.23;;;18.80;53.20;;;;;;5068557;28;20467;-66